Pagrindinis puslapis
METAR-TAF:

METAR-TAF

Oro uostai :

Sogndalis, Norvegija

platuma: 61-09N, ilguma: 007-08E, Aukštis: 49 m

Dabartinis oras

Ataskaita buvo paskelbta 14 minutes, ne 16:20 UTC
Vėjas 5 kt iš Vakarų/Pietvakarių
Temperatūra 9°C
Drėgmė 71%
Slėgis 1012 hPa
Matomumas 10 km arba daugiau
Mažai debesys ne aukštis 3000 ft
Su prošvaistėmis ne aukštis 4900 ft

METAR: ENSG 251620Z 24005KT 9999 FEW030 BKN049 09/04 Q1012 RMK WIND 3806FT 21011KT

Laikas: 18:34 (16:34 UTC)


TAF: trūkstamas

Orai ataskaitas ir orų prognozės (METAR, TAF).

turimą stotys yra geltonos ir raudonos taškus žemėlapyje.

Perkelti pele per norėdami pamatyti stoties vardą.

Tada spustelėkite, norėdami matyti oro stebėjimo ir prognozės.

Norėdami pakeisti žemėlapį: spustelėkite ant žalios mygtukų su juodo kryžiaus žemyn,; žalią mygtuką su brūkšneliu, jei norite nutolinti; arba žalių rodyklių gretimoms žemėlapius.


METAR-TAF: